Time;durP1;ratioP1;P1;durP2;ratioP2;P2;SDS_P1;SDS_P2;PMS_P1;PMS_P2;Temp;Humidity;BMP_temperature;BMP_pressure;BME280_temperature;BME280_humidity;BME280_pressure;Samples;Min_cycle;Max_cycle;Signal;HPM_P1;HPM_P2
2022/11/05 00:09:32;;;;;;;3.75;1.65;;;25.60;99.90;;;;;;5026040;28;20040;-46
2022/11/05 00:17:35;;;;;;;1.55;1.27;;;25.60;99.90;;;;;;5014420;28;20037;-44
2022/11/05 00:20:01;;;;;;;7.10;1.33;;;25.50;99.90;;;;;;5015154;28;20026;-44
2022/11/05 00:25:18;;;;;;;3.22;1.65;;;25.50;99.90;;;;;;5014512;28;20129;-44
2022/11/05 00:27:49;;;;;;;1.67;1.30;;;25.50;99.90;;;;;;5001440;28;20073;-44
2022/11/05 00:30:18;;;;;;;2.88;1.55;;;25.50;99.90;;;;;;5014680;28;20022;-44
2022/11/05 00:32:45;;;;;;;2.83;1.10;;;25.50;99.90;;;;;;5013291;28;20022;-45
2022/11/05 00:35:11;;;;;;;;;;;25.50;99.90;;;;;;5028184;28;20060;-44
2022/11/05 00:37:37;;;;;;;4.65;1.80;;;25.40;99.90;;;;;;5014507;28;19949;-45
2022/11/05 00:40:04;;;;;;;8.00;5.97;;;25.40;99.90;;;;;;5013901;28;20056;-43
2022/11/05 00:45:14;;;;;;;3.30;2.08;;;25.40;99.90;;;;;;5013854;28;20412;-45
2022/11/05 00:50:25;;;;;;;3.33;1.95;;;25.50;99.90;;;;;;5014674;28;20053;-45
2022/11/05 00:52:56;;;;;;;5.25;2.05;;;25.50;99.90;;;;;;5013024;28;20025;-45
2022/11/05 00:55:37;;;;;;;4.70;2.67;;;25.60;99.90;;;;;;5012587;28;20034;-44
2022/11/05 00:58:15;;;;;;;3.15;2.20;;;25.60;99.90;;;;;;5014049;28;20029;-44
2022/11/05 01:00:43;;;;;;;3.90;2.80;;;25.70;99.90;;;;;;5050893;22;20049;-47
2022/11/05 01:03:12;;;;;;;3.65;2.05;;;25.70;99.90;;;;;;5073356;28;20104;-48
2022/11/05 01:05:44;;;;;;;3.95;2.05;;;25.80;99.90;;;;;;5073784;28;20129;-48
2022/11/05 01:08:11;;;;;;;5.25;2.45;;;25.80;99.90;;;;;;5055498;28;20111;-48
2022/11/05 01:10:46;;;;;;;4.40;2.28;;;25.90;99.90;;;;;;5041227;28;20021;-47
2022/11/05 01:13:12;;;;;;;4.97;2.40;;;25.90;99.90;;;;;;5048425;28;20511;-47
2022/11/05 01:15:39;;;;;;;4.13;2.23;;;25.90;99.90;;;;;;5045194;28;20469;-47
2022/11/05 01:18:05;;;;;;;3.42;2.10;;;26.00;99.90;;;;;;5058048;28;20261;-48
2022/11/05 01:20:31;;;;;;;4.47;2.05;;;26.00;99.90;;;;;;5048192;28;20500;-47
2022/11/05 01:22:57;;;;;;;4.20;2.35;;;26.00;99.90;;;;;;5065994;28;20025;-49
2022/11/05 01:25:23;;;;;;;3.03;2.30;;;26.10;99.90;;;;;;5071951;28;20485;-48
2022/11/05 01:27:48;;;;;;;7.07;2.53;;;26.10;99.90;;;;;;5060200;28;20017;-47
2022/11/05 01:30:14;;;;;;;4.57;2.30;;;26.10;99.90;;;;;;5073096;28;20048;-47
2022/11/05 01:32:40;;;;;;;6.38;2.58;;;26.10;99.90;;;;;;5061752;28;20469;-48
2022/11/05 01:35:09;;;;;;;4.97;2.30;;;26.20;99.90;;;;;;5073209;28;20083;-47
2022/11/05 01:37:35;;;;;;;4.75;2.35;;;26.20;99.90;;;;;;5069303;28;20021;-48
2022/11/05 01:40:01;;;;;;;3.45;2.20;;;26.20;99.90;;;;;;5064051;28;20035;-48
2022/11/05 01:42:27;;;;;;;5.55;2.60;;;26.20;99.90;;;;;;5073130;28;20028;-48
2022/11/05 01:45:03;;;;;;;2.95;2.30;;;26.20;99.90;;;;;;5065255;28;20626;-47
2022/11/05 01:47:47;;;;;;;5.72;2.58;;;26.20;99.90;;;;;;5071301;28;20040;-47
2022/11/05 01:50:55;;;;;;;8.85;2.60;;;26.20;99.90;;;;;;5063655;28;20024;-47
2022/11/05 01:53:35;;;;;;;5.82;2.75;;;26.20;99.90;;;;;;5042101;28;20028;-47
2022/11/05 01:56:13;;;;;;;3.28;2.38;;;26.30;99.90;;;;;;5072548;28;20020;-48
2022/11/05 01:58:47;;;;;;;;;;;26.30;99.90;;;;;;5055508;28;20459;-48
2022/11/05 02:01:14;;;;;;;2.88;2.10;;;26.30;99.90;;;;;;5101583;22;19924;-56
2022/11/05 02:03:41;;;;;;;3.27;2.57;;;26.30;99.90;;;;;;5092768;28;20115;-54
2022/11/05 02:06:08;;;;;;;6.70;2.80;;;26.30;99.90;;;;;;5069644;28;20040;-55
2022/11/05 02:09:15;;;;;;;6.93;2.38;;;26.30;99.90;;;;;;5069055;28;20019;-55
2022/11/05 02:11:40;;;;;;;;;;;26.30;99.90;;;;;;5070812;28;20063;-53
2022/11/05 02:14:06;;;;;;;7.63;2.80;;;26.30;99.90;;;;;;5092816;28;19904;-54
2022/11/05 02:16:57;;;;;;;5.57;2.85;;;26.30;99.90;;;;;;5088458;28;20027;-54
2022/11/05 02:19:44;;;;;;;6.20;2.92;;;26.20;99.90;;;;;;5092692;28;20035;-52
2022/11/05 02:22:22;;;;;;;3.90;2.60;;;26.30;99.90;;;;;;5084697;28;20032;-52
2022/11/05 02:24:56;;;;;;;;;;;26.30;99.90;;;;;;5092202;28;20093;-53
2022/11/05 02:27:38;;;;;;;4.63;2.80;;;26.30;99.90;;;;;;5082671;28;19904;-52
2022/11/05 02:30:16;;;;;;;6.32;2.92;;;26.30;99.90;;;;;;5096954;28;20027;-52
2022/11/05 02:32:48;;;;;;;3.80;2.97;;;26.30;99.90;;;;;;5084836;28;20031;-52
2022/11/05 02:35:44;;;;;;;4.65;3.05;;;26.30;99.90;;;;;;5096740;28;20036;-53
2022/11/05 02:38:26;;;;;;;5.20;3.05;;;26.30;99.90;;;;;;5096586;28;20522;-51
2022/11/05 02:41:35;;;;;;;3.90;3.30;;;26.30;99.90;;;;;;5089182;28;20472;-53
2022/11/05 02:44:19;;;;;;;3.65;2.85;;;26.30;99.90;;;;;;5054653;28;20106;-53
2022/11/05 02:46:57;;;;;;;3.80;3.03;;;26.30;99.90;;;;;;5079605;28;20489;-56
2022/11/05 02:49:50;;;;;;;4.65;2.90;;;26.30;99.90;;;;;;5091673;28;20520;-55
2022/11/05 02:52:38;;;;;;;3.90;2.65;;;26.30;99.90;;;;;;5096441;28;20099;-53
2022/11/05 02:55:20;;;;;;;5.30;3.03;;;26.30;99.90;;;;;;5070437;28;20044;-52
2022/11/05 02:57:47;;;;;;;3.75;2.65;;;26.30;99.90;;;;;;5072550;28;20032;-52
2022/11/05 03:00:34;;;;;;;4.75;2.90;;;26.30;99.90;;;;;;5092862;22;20099;-47
2022/11/05 03:03:02;;;;;;;5.88;3.22;;;26.30;99.90;;;;;;5065250;28;20086;-47
2022/11/05 03:05:43;;;;;;;4.85;2.88;;;26.30;99.90;;;;;;5070459;28;20082;-47
2022/11/05 03:08:21;;;;;;;3.78;3.10;;;26.30;99.90;;;;;;5075967;28;20028;-47
2022/11/05 03:11:00;;;;;;;5.32;3.33;;;26.30;99.90;;;;;;5075372;28;20096;-47
2022/11/05 03:13:54;;;;;;;4.47;3.17;;;26.30;99.90;;;;;;5063769;28;20029;-47
2022/11/05 03:16:40;;;;;;;4.07;2.80;;;26.30;99.90;;;;;;5030945;28;20033;-48
2022/11/05 03:19:31;;;;;;;3.40;2.72;;;26.30;99.90;;;;;;5075766;28;20033;-48
2022/11/05 03:22:10;;;;;;;4.35;2.97;;;26.30;99.90;;;;;;5064736;28;20033;-48
2022/11/05 03:24:43;;;;;;;3.38;2.60;;;26.30;99.90;;;;;;5056120;28;20043;-48
2022/11/05 03:27:14;;;;;;;4.47;3.08;;;26.30;99.90;;;;;;5061504;28;20021;-47
2022/11/05 03:29:47;;;;;;;3.15;2.60;;;26.30;99.90;;;;;;5074648;28;20081;-47
2022/11/05 03:32:16;;;;;;;3.58;2.60;;;26.30;99.90;;;;;;5075333;28;20020;-47
2022/11/05 03:34:46;;;;;;;5.70;3.03;;;26.30;99.90;;;;;;5075067;28;20477;-47
2022/11/05 03:37:15;;;;;;;4.40;2.80;;;26.30;99.90;;;;;;5075326;28;20033;-47
2022/11/05 03:39:45;;;;;;;4.22;2.80;;;26.20;99.90;;;;;;5075488;28;20016;-47
2022/11/05 03:42:14;;;;;;;3.80;2.47;;;26.20;99.90;;;;;;5074071;28;20099;-48
2022/11/05 03:44:46;;;;;;;4.85;3.03;;;26.20;99.90;;;;;;5074218;28;20025;-47
2022/11/05 03:47:19;;;;;;;3.38;2.60;;;26.20;99.90;;;;;;5073746;28;20067;-48
2022/11/05 03:50:03;;;;;;;4.13;2.60;;;26.20;99.90;;;;;;5075050;28;20112;-47
2022/11/05 03:52:35;;;;;;;2.67;2.35;;;26.20;99.90;;;;;;5075245;28;20032;-47
2022/11/05 03:55:01;;;;;;;3.15;2.50;;;26.20;99.90;;;;;;5074450;28;20115;-48
2022/11/05 03:57:31;;;;;;;3.60;2.60;;;26.20;99.90;;;;;;5073911;28;20109;-46
2022/11/05 03:59:57;;;;;;;4.40;2.53;;;26.20;99.90;;;;;;5057897;28;20044;-47
2022/11/05 04:02:24;;;;;;;4.68;2.83;;;26.20;99.90;;;;;;5075002;28;20036;-48
2022/11/05 04:04:51;;;;;;;;;;;26.20;99.90;;;;;;5075383;28;20047;-48
2022/11/05 04:15:29;;;;;;;2.85;2.45;;;26.20;99.90;;;;;;5075167;28;20034;-47
2022/11/05 04:17:57;;;;;;;3.42;2.72;;;26.20;99.90;;;;;;5074772;28;20020;-47
2022/11/05 04:25:54;;;;;;;2.72;2.42;;;26.10;99.90;;;;;;5074718;28;20545;-47
2022/11/05 04:28:19;;;;;;;3.63;2.63;;;26.10;99.90;;;;;;5074607;28;20037;-48
2022/11/05 04:30:45;;;;;;;4.18;2.53;;;26.10;99.90;;;;;;5074565;28;20021;-48
2022/11/05 04:33:15;;;;;;;3.13;2.60;;;26.10;99.90;;;;;;5074452;28;20092;-48
2022/11/05 04:35:46;;;;;;;2.80;2.47;;;26.10;99.90;;;;;;5074259;28;20016;-48
2022/11/05 04:38:14;;;;;;;6.97;3.22;;;26.10;99.90;;;;;;5074430;28;20020;-48
2022/11/05 04:40:40;;;;;;;2.90;2.30;;;26.10;99.90;;;;;;5074581;28;20111;-47
2022/11/05 04:43:07;;;;;;;2.80;2.00;;;26.10;99.90;;;;;;5074331;28;20026;-48
2022/11/05 04:45:34;;;;;;;3.65;2.45;;;26.10;99.90;;;;;;5073495;28;20032;-48
2022/11/05 04:48:01;;;;;;;2.88;2.38;;;26.00;99.90;;;;;;5074072;28;20505;-48
2022/11/05 04:50:27;;;;;;;3.00;2.40;;;26.00;99.90;;;;;;5074230;28;20099;-48
2022/11/05 04:52:53;;;;;;;3.20;2.30;;;26.10;99.90;;;;;;5074332;28;20108;-47
2022/11/05 04:55:19;;;;;;;2.58;2.13;;;26.00;99.90;;;;;;5074206;28;20576;-48
2022/11/05 04:57:49;;;;;;;2.60;2.38;;;26.00;99.90;;;;;;5074210;28;20082;-47
2022/11/05 05:00:15;;;;;;;4.43;2.78;;;26.00;99.90;;;;;;5056758;28;20043;-48
2022/11/05 05:02:41;;;;;;;2.47;2.10;;;26.00;99.90;;;;;;5074202;28;20055;-48
2022/11/05 05:05:07;;;;;;;3.17;2.28;;;26.00;99.90;;;;;;5073919;28;20449;-47
2022/11/05 05:07:33;;;;;;;2.75;2.45;;;26.00;99.90;;;;;;5073943;28;20415;-48
2022/11/05 05:10:00;;;;;;;3.05;2.45;;;26.00;99.90;;;;;;5073953;28;20020;-48
2022/11/05 05:12:26;;;;;;;3.15;2.40;;;26.00;99.90;;;;;;5073719;28;20400;-48
2022/11/05 05:14:52;;;;;;;3.13;2.10;;;26.00;99.90;;;;;;5073630;28;20539;-48
2022/11/05 05:17:18;;;;;;;2.80;2.08;;;26.00;99.90;;;;;;5073738;28;20036;-48
2022/11/05 05:22:28;;;;;;;2.75;2.03;;;26.00;99.90;;;;;;5073606;28;20027;-48
2022/11/05 05:24:55;;;;;;;2.40;2.20;;;25.90;99.90;;;;;;5073459;28;20021;-47
2022/11/05 05:27:22;;;;;;;2.83;1.92;;;25.90;99.90;;;;;;5073621;28;20017;-48
2022/11/05 05:29:48;;;;;;;2.40;2.20;;;25.90;99.90;;;;;;5073614;28;20052;-47
2022/11/05 05:32:14;;;;;;;3.17;2.47;;;25.90;99.90;;;;;;5073608;28;20056;-47
2022/11/05 05:34:40;;;;;;;2.30;1.98;;;25.90;99.90;;;;;;5073515;28;20029;-48
2022/11/05 05:37:05;;;;;;;2.45;2.03;;;25.90;99.90;;;;;;5073425;28;20468;-48
2022/11/05 05:39:31;;;;;;;2.67;1.95;;;25.90;99.90;;;;;;5072175;28;20074;-47
2022/11/05 05:41:57;;;;;;;2.80;2.03;;;25.90;99.90;;;;;;5073517;28;20070;-49
2022/11/05 05:44:23;;;;;;;2.70;2.00;;;25.90;99.90;;;;;;5055611;28;20031;-48
2022/11/05 05:46:49;;;;;;;2.78;2.30;;;25.90;99.90;;;;;;5073198;28;20377;-48
2022/11/05 05:49:15;;;;;;;2.53;1.92;;;25.90;99.90;;;;;;5073444;28;20108;-48
2022/11/05 05:51:40;;;;;;;3.50;2.13;;;25.90;99.90;;;;;;5073253;28;20040;-48
2022/11/05 05:54:06;;;;;;;2.58;2.10;;;25.90;99.90;;;;;;5073231;28;20027;-48
2022/11/05 05:56:32;;;;;;;1.90;1.73;;;25.90;99.90;;;;;;5073101;28;20048;-49
2022/11/05 05:58:58;;;;;;;2.92;1.67;;;25.90;99.90;;;;;;5073145;28;20024;-49
2022/11/05 06:01:23;;;;;;;3.00;1.75;;;25.80;99.90;;;;;;5071733;28;20508;-49
2022/11/05 06:03:49;;;;;;;2.90;1.92;;;25.90;99.90;;;;;;5073399;28;20025;-48
2022/11/05 06:06:19;;;;;;;2.50;1.75;;;25.90;99.90;;;;;;5054968;28;20037;-49
2022/11/05 06:08:46;;;;;;;2.50;1.75;;;25.90;99.90;;;;;;5073057;28;20480;-50
2022/11/05 06:11:12;;;;;;;2.15;1.67;;;25.80;99.90;;;;;;5073055;28;20028;-49
2022/11/05 06:13:38;;;;;;;2.25;1.92;;;25.80;99.90;;;;;;5072906;28;20017;-49
2022/11/05 06:16:06;;;;;;;2.78;2.38;;;25.80;99.90;;;;;;5073001;28;20427;-46
2022/11/05 06:18:32;;;;;;;2.50;2.00;;;25.80;99.90;;;;;;5073046;28;20021;-47
2022/11/05 06:21:06;;;;;;;1.60;1.50;;;25.80;99.90;;;;;;5071531;28;20024;-47
2022/11/05 06:23:32;;;;;;;3.50;1.60;;;25.80;99.90;;;;;;5072701;28;20477;-47
2022/11/05 06:26:02;;;;;;;2.58;1.73;;;25.80;99.90;;;;;;5072860;28;20050;-47
2022/11/05 06:28:28;;;;;;;2.72;2.25;;;25.80;99.90;;;;;;5072785;28;20103;-47
2022/11/05 06:30:55;;;;;;;5.30;2.22;;;25.80;99.90;;;;;;5072875;28;20063;-47
2022/11/05 06:33:21;;;;;;;2.38;1.98;;;25.80;99.90;;;;;;5072939;28;20028;-47
2022/11/05 06:35:47;;;;;;;2.42;1.90;;;25.80;99.90;;;;;;5072958;28;20021;-47
2022/11/05 06:38:13;;;;;;;2.67;2.08;;;25.80;99.90;;;;;;5055069;28;20058;-47
2022/11/05 06:40:38;;;;;;;2.85;2.35;;;25.80;99.90;;;;;;5071575;28;20025;-47
2022/11/05 06:43:04;;;;;;;3.60;2.47;;;25.80;99.90;;;;;;5072689;28;20044;-47
2022/11/05 06:45:30;;;;;;;4.53;2.55;;;25.80;99.90;;;;;;5072727;28;20033;-47
2022/11/05 06:47:56;;;;;;;3.50;2.50;;;25.80;99.90;;;;;;5072539;28;20485;-48
2022/11/05 06:50:26;;;;;;;3.50;2.83;;;25.80;99.90;;;;;;5072478;28;20044;-48
2022/11/05 06:52:54;;;;;;;3.13;2.38;;;25.70;99.90;;;;;;5071309;28;20431;-47
2022/11/05 06:55:19;;;;;;;3.30;2.22;;;25.70;99.90;;;;;;5072573;28;20013;-47
2022/11/05 06:57:45;;;;;;;2.80;2.38;;;25.70;99.90;;;;;;5072611;28;20103;-47
2022/11/05 07:00:11;;;;;;;4.18;2.22;;;25.70;99.90;;;;;;5072467;28;20039;-47
2022/11/05 07:02:37;;;;;;;2.90;2.55;;;25.70;99.90;;;;;;5072540;28;20532;-47
2022/11/05 07:05:03;;;;;;;3.40;2.70;;;25.70;99.90;;;;;;5072388;28;20146;-47
2022/11/05 07:07:28;;;;;;;3.45;2.78;;;25.70;99.90;;;;;;5072481;28;20025;-47
2022/11/05 07:09:54;;;;;;;3.47;2.58;;;25.70;99.90;;;;;;5074472;28;20368;-48
2022/11/05 07:12:20;;;;;;;3.75;2.72;;;25.70;99.90;;;;;;5075936;28;20483;-48
2022/11/05 07:14:46;;;;;;;3.20;2.45;;;25.70;99.90;;;;;;5076102;28;20103;-48
2022/11/05 07:17:11;;;;;;;2.95;2.10;;;25.70;99.90;;;;;;5076148;28;20096;-48
2022/11/05 07:19:37;;;;;;;3.83;2.45;;;25.80;99.90;;;;;;5074641;28;20107;-47
2022/11/05 07:22:03;;;;;;;2.50;2.30;;;25.80;99.90;;;;;;5075907;28;20346;-47
2022/11/05 07:24:28;;;;;;;3.63;2.67;;;25.80;99.90;;;;;;5075947;28;20508;-47
2022/11/05 07:26:54;;;;;;;3.33;2.80;;;25.80;99.90;;;;;;5075667;28;20048;-47
2022/11/05 07:29:20;;;;;;;2.95;2.45;;;25.80;99.90;;;;;;5075956;28;20048;-47
2022/11/05 07:31:46;;;;;;;3.60;2.63;;;25.80;99.90;;;;;;5075627;28;20112;-47
2022/11/05 07:34:11;;;;;;;4.00;2.67;;;25.80;99.90;;;;;;5075675;28;20484;-47
2022/11/05 07:36:38;;;;;;;3.33;2.65;;;25.80;99.90;;;;;;5075680;28;20103;-47
2022/11/05 07:39:04;;;;;;;3.13;2.25;;;25.80;99.90;;;;;;5075532;28;20017;-47
2022/11/05 07:41:30;;;;;;;4.28;2.42;;;25.90;99.90;;;;;;5075407;28;20021;-48
2022/11/05 07:43:56;;;;;;;4.57;2.88;;;25.80;99.90;;;;;;5075314;28;20077;-47
2022/11/05 07:46:21;;;;;;;2.83;2.30;;;25.90;99.90;;;;;;5075308;28;20071;-47
2022/11/05 07:48:47;;;;;;;2.63;2.25;;;25.90;99.90;;;;;;5075342;28;20052;-48
2022/11/05 07:51:13;;;;;;;3.20;2.60;;;25.90;99.90;;;;;;5057625;28;20083;-47
2022/11/05 07:53:38;;;;;;;2.60;2.28;;;25.90;99.90;;;;;;5057492;28;20047;-47
2022/11/05 07:56:04;;;;;;;2.90;2.60;;;25.90;99.90;;;;;;5075394;28;20021;-48
2022/11/05 07:58:31;;;;;;;3.17;2.70;;;26.00;99.90;;;;;;5075295;28;20040;-47
2022/11/05 08:00:56;;;;;;;3.13;2.63;;;26.00;99.90;;;;;;5075216;28;20040;-47
2022/11/05 08:03:22;;;;;;;3.55;2.88;;;26.00;99.90;;;;;;5075176;28;20025;-49
2022/11/05 08:05:48;;;;;;;3.58;2.80;;;26.00;99.90;;;;;;5075144;28;20370;-48
2022/11/05 08:08:17;;;;;;;3.35;2.80;;;26.00;99.90;;;;;;5075049;28;20499;-47
2022/11/05 08:10:43;;;;;;;4.20;3.00;;;26.00;99.90;;;;;;5074967;28;20033;-48
2022/11/05 08:13:09;;;;;;;3.53;2.88;;;26.10;99.90;;;;;;5074996;28;20016;-48
2022/11/05 08:15:35;;;;;;;3.63;2.78;;;26.10;99.90;;;;;;5074969;28;20023;-47
2022/11/05 08:18:06;;;;;;;4.03;3.22;;;26.10;99.90;;;;;;5074948;28;20423;-48
2022/11/05 08:20:33;;;;;;;5.20;2.90;;;26.10;99.90;;;;;;5073743;28;20029;-48
2022/11/05 08:22:59;;;;;;;4.25;3.13;;;26.10;99.90;;;;;;5074791;28;20020;-47
2022/11/05 08:25:25;;;;;;;2.85;2.53;;;26.10;99.90;;;;;;5074667;28;20107;-48
2022/11/05 08:27:59;;;;;;;4.65;2.58;;;26.20;99.90;;;;;;5073487;28;20464;-47
2022/11/05 08:30:25;;;;;;;10.48;3.83;;;26.20;99.90;;;;;;5074624;28;20029;-47
2022/11/05 08:32:59;;;;;;;4.80;3.00;;;26.20;99.90;;;;;;5074566;28;20107;-47
2022/11/05 08:35:26;;;;;;;4.50;3.35;;;26.20;99.90;;;;;;5074515;28;20373;-47
2022/11/05 08:37:59;;;;;;;6.50;3.17;;;26.20;99.90;;;;;;5074739;28;20017;-47
2022/11/05 08:40:25;;;;;;;4.13;3.35;;;26.20;99.90;;;;;;5057053;28;20040;-48
2022/11/05 08:42:51;;;;;;;5.13;3.58;;;26.20;99.90;;;;;;5074356;28;20048;-47
2022/11/05 08:45:17;;;;;;;5.43;3.45;;;26.30;99.90;;;;;;5074274;28;20111;-47
2022/11/05 08:47:43;;;;;;;5.75;3.95;;;26.30;99.90;;;;;;5074149;28;20124;-47
2022/11/05 08:50:09;;;;;;;4.20;3.30;;;26.30;99.90;;;;;;5074276;28;20070;-47
2022/11/05 08:52:38;;;;;;;5.32;3.78;;;26.30;99.90;;;;;;5074103;28;20042;-48
2022/11/05 08:55:04;;;;;;;4.82;3.58;;;26.40;99.90;;;;;;5073965;28;20074;-47
2022/11/05 08:57:30;;;;;;;5.10;4.05;;;26.40;99.90;;;;;;5073986;28;20028;-47
2022/11/05 08:59:56;;;;;;;5.40;4.05;;;26.40;99.90;;;;;;5073794;28;20089;-47
2022/11/05 09:02:21;;;;;;;4.30;3.67;;;26.40;99.90;;;;;;5072430;28;20028;-47
2022/11/05 09:04:47;;;;;;;4.30;3.72;;;26.50;99.90;;;;;;5073914;28;20017;-47
2022/11/05 09:07:13;;;;;;;6.63;4.20;;;26.50;99.90;;;;;;5073786;28;20048;-47
2022/11/05 09:09:38;;;;;;;5.72;4.35;;;26.50;99.90;;;;;;5073789;28;20021;-48
2022/11/05 09:12:04;;;;;;;5.88;3.97;;;26.50;99.90;;;;;;5073688;28;20028;-47
2022/11/05 09:14:30;;;;;;;5.00;4.35;;;26.60;99.90;;;;;;5073775;28;20095;-47
2022/11/05 09:16:56;;;;;;;6.68;4.03;;;26.60;99.90;;;;;;5073649;28;20044;-49
2022/11/05 09:19:22;;;;;;;5.35;4.40;;;26.60;99.90;;;;;;5073542;28;20047;-48
2022/11/05 09:21:47;;;;;;;6.25;4.47;;;26.70;99.90;;;;;;5073623;28;20032;-47
2022/11/05 09:24:13;;;;;;;6.30;4.15;;;26.70;99.90;;;;;;5073390;28;20027;-47
2022/11/05 09:26:39;;;;;;;5.82;4.45;;;26.70;99.90;;;;;;5073361;28;20041;-47
2022/11/05 09:29:04;;;;;;;6.97;4.50;;;26.80;99.90;;;;;;5055465;28;20028;-48
2022/11/05 09:31:30;;;;;;;6.20;4.93;;;26.80;99.90;;;;;;5073080;28;20036;-48
2022/11/05 09:33:56;;;;;;;7.88;4.72;;;26.80;99.90;;;;;;5073301;28;20421;-48
2022/11/05 09:36:22;;;;;;;7.20;4.43;;;26.80;99.90;;;;;;5073495;28;20111;-48
2022/11/05 09:38:47;;;;;;;6.30;5.00;;;26.90;99.90;;;;;;5073199;28;20021;-48
2022/11/05 09:41:26;;;;;;;7.10;5.50;;;26.90;99.90;;;;;;5073289;28;20020;-48
2022/11/05 09:43:57;;;;;;;6.90;4.97;;;26.90;99.90;;;;;;5073407;28;20063;-47
2022/11/05 09:46:25;;;;;;;7.35;4.53;;;27.00;99.90;;;;;;5073251;28;20043;-48
2022/11/05 09:49:02;;;;;;;8.13;5.18;;;27.00;99.90;;;;;;5073201;28;20542;-48
2022/11/05 09:51:28;;;;;;;5.68;4.80;;;27.10;99.90;;;;;;5039877;28;20504;-48
2022/11/05 09:53:54;;;;;;;6.32;4.85;;;27.10;99.90;;;;;;5073012;28;20031;-49
2022/11/05 09:56:29;;;;;;;8.35;5.68;;;27.20;99.90;;;;;;5073263;28;20025;-53
2022/11/05 09:59:02;;;;;;;6.55;5.10;;;27.20;99.90;;;;;;5072966;28;20035;-49
2022/11/05 10:01:35;;;;;;;6.45;4.65;;;27.20;99.90;;;;;;5072899;28;20048;-49
2022/11/05 10:04:18;;;;;;;9.18;6.40;;;27.30;99.90;;;;;;5071869;28;20103;-49
2022/11/05 10:06:52;;;;;;;9.23;5.47;;;27.40;99.90;;;;;;5057090;28;20089;-49
2022/11/05 10:09:30;;;;;;;7.78;5.40;;;27.40;99.90;;;;;;5073081;28;20025;-49
2022/11/05 10:12:06;;;;;;;6.75;4.97;;;27.50;99.90;;;;;;5072996;28;20024;-49
2022/11/05 10:14:40;;;;;;;7.88;5.32;;;27.50;99.90;;;;;;5072991;28;20150;-49
2022/11/05 10:17:21;;;;;;;7.45;5.40;;;27.60;99.90;;;;;;5072801;28;20021;-48
2022/11/05 10:20:32;;;;;;;8.10;5.03;;;27.60;99.90;;;;;;5072890;28;20036;-48
2022/11/05 10:23:07;;;;;;;8.15;5.38;;;27.70;99.90;;;;;;5054671;28;20476;-48
2022/11/05 10:25:38;;;;;;;7.28;4.93;;;27.70;99.90;;;;;;5055935;28;20075;-48
2022/11/05 10:28:06;;;;;;;7.22;5.32;;;27.80;99.90;;;;;;5071614;28;20021;-49
2022/11/05 10:30:32;;;;;;;7.97;4.90;;;27.80;99.90;;;;;;5072814;28;20040;-48
2022/11/05 10:33:03;;;;;;;6.55;5.35;;;27.80;99.90;;;;;;5072808;28;20031;-48
2022/11/05 10:35:32;;;;;;;12.90;5.60;;;27.90;99.90;;;;;;5072513;28;20023;-47
2022/11/05 10:37:58;;;;;;;6.80;5.00;;;27.90;99.90;;;;;;5072436;28;20028;-48
2022/11/05 10:40:48;;;;;;;7.38;5.57;;;28.00;99.90;;;;;;5072453;28;20373;-48
2022/11/05 10:43:39;;;;;;;6.68;5.47;;;28.00;99.90;;;;;;5072602;28;20051;-48
2022/11/05 10:46:19;;;;;;;6.47;5.05;;;28.10;99.90;;;;;;5076574;28;20418;-48
2022/11/05 10:48:51;;;;;;;8.55;5.95;;;28.10;99.90;;;;;;5076499;28;20056;-47
2022/11/05 10:51:18;;;;;;;7.55;5.82;;;28.10;99.90;;;;;;5076617;28;20081;-47
2022/11/05 10:53:52;;;;;;;7.15;5.78;;;28.20;99.90;;;;;;5076451;28;20032;-47
2022/11/05 10:56:47;;;;;;;7.68;5.53;;;28.20;99.90;;;;;;5076344;28;20024;-48
2022/11/05 10:59:19;;;;;;;8.70;6.18;;;28.20;99.90;;;;;;5058873;28;20085;-48
2022/11/05 11:01:45;;;;;;;8.20;5.88;;;28.30;99.90;;;;;;5076063;28;20049;-48
2022/11/05 11:04:16;;;;;;;7.65;6.05;;;28.40;99.90;;;;;;5076106;28;20016;-48
2022/11/05 11:06:52;;;;;;;10.38;6.35;;;28.40;99.90;;;;;;5076161;28;20033;-48
2022/11/05 11:09:28;;;;;;;10.05;6.30;;;28.40;99.90;;;;;;5076158;28;20024;-48
2022/11/05 11:12:12;;;;;;;8.75;6.70;;;28.40;99.90;;;;;;5076040;28;20017;-48
2022/11/05 11:14:38;;;;;;;7.43;6.30;;;28.40;99.90;;;;;;5076238;28;20411;-48
2022/11/05 11:17:25;;;;;;;8.50;6.30;;;28.50;99.90;;;;;;5074785;28;20369;-48
2022/11/05 11:20:10;;;;;;;9.65;6.25;;;28.50;99.90;;;;;;5075885;28;20028;-48
2022/11/05 11:22:35;;;;;;;6.90;6.18;;;28.60;99.90;;;;;;5075874;28;20024;-48
2022/11/05 11:25:23;;;;;;;8.75;6.50;;;28.60;99.90;;;;;;5075778;28;20077;-47
2022/11/05 11:27:50;;;;;;;9.13;6.97;;;28.60;99.90;;;;;;5059527;28;20115;-48
2022/11/05 11:30:18;;;;;;;8.43;6.63;;;28.60;99.90;;;;;;5075456;28;20017;-48
2022/11/05 11:32:44;;;;;;;8.52;7.05;;;28.70;99.90;;;;;;5075784;28;20024;-48
2022/11/05 11:35:29;;;;;;;9.63;7.07;;;28.70;99.90;;;;;;5075594;28;20032;-48
2022/11/05 11:37:56;;;;;;;9.07;7.28;;;28.70;99.90;;;;;;5075604;28;20032;-48
2022/11/05 11:40:31;;;;;;;7.72;6.63;;;28.80;99.90;;;;;;5075692;28;20023;-48
2022/11/05 11:43:02;;;;;;;9.80;7.40;;;28.80;99.90;;;;;;5075535;28;20099;-48
2022/11/05 11:45:57;;;;;;;9.38;6.75;;;28.80;99.90;;;;;;5075306;28;20124;-48
2022/11/05 11:48:32;;;;;;;8.55;6.88;;;28.90;99.90;;;;;;5071195;28;20036;-48
2022/11/05 11:51:13;;;;;;;9.13;6.95;;;28.90;99.90;;;;;;5075280;28;20027;-48
2022/11/05 11:53:40;;;;;;;8.93;7.43;;;28.90;99.90;;;;;;5075096;28;20020;-48
2022/11/05 11:56:12;;;;;;;8.98;7.85;;;29.00;99.90;;;;;;5074897;28;20017;-48
2022/11/05 11:58:52;;;;;;;10.73;8.05;;;29.00;99.90;;;;;;5075115;28;20039;-48
2022/11/05 12:01:41;;;;;;;9.23;7.43;;;29.00;99.90;;;;;;5074925;28;20058;-48
2022/11/05 12:04:40;;;;;;;10.68;7.88;;;29.10;99.90;;;;;;5060759;28;20111;-48
2022/11/05 12:07:32;;;;;;;10.50;7.03;;;29.10;99.90;;;;;;5074959;28;20028;-48
2022/11/05 12:10:37;;;;;;;8.82;7.20;;;29.10;99.90;;;;;;5074993;28;20020;-48
2022/11/05 12:13:18;;;;;;;10.07;7.60;;;29.20;99.90;;;;;;5074863;28;20131;-47
2022/11/05 12:15:55;;;;;;;9.10;7.32;;;29.20;99.90;;;;;;5074947;28;20028;-48
2022/11/05 12:18:51;;;;;;;10.75;7.90;;;29.20;99.90;;;;;;5074880;28;20497;-48
2022/11/05 12:21:43;;;;;;;10.30;7.18;;;29.30;99.90;;;;;;5074689;28;20033;-48
2022/11/05 12:24:36;;;;;;;9.95;7.40;;;29.30;99.90;;;;;;5074616;28;20040;-48
2022/11/05 12:27:22;;;;;;;9.10;7.10;;;29.30;99.90;;;;;;5063437;28;20044;-48
2022/11/05 12:30:15;;;;;;;8.65;3.42;;;29.40;99.90;;;;;;5018421;28;20017;-51
2022/11/05 12:33:03;;;;;;;5.35;1.33;;;29.40;99.90;;;;;;5034744;28;20531;-52
2022/11/05 12:36:01;;;;;;;2.78;1.20;;;29.30;99.90;;;;;;5059253;28;20021;-48
2022/11/05 12:38:51;;;;;;;3.85;2.47;;;29.10;99.90;;;;;;5047589;28;20021;-47
2022/11/05 12:41:29;;;;;;;6.35;3.00;;;28.80;99.90;;;;;;5044863;28;20028;-48
2022/11/05 12:43:54;;;;;;;;;;;28.60;99.90;;;;;;5045208;28;20060;-48
2022/11/05 12:46:28;;;;;;;13.20;5.07;;;28.40;99.90;;;;;;5053954;28;19955;-47
2022/11/05 12:49:18;;;;;;;10.65;4.80;;;28.20;99.90;;;;;;5050198;28;20039;-47
2022/11/05 12:51:49;;;;;;;6.70;5.45;;;28.10;99.90;;;;;;5036110;28;20052;-46
2022/11/05 12:54:37;;;;;;;9.15;5.43;;;28.00;99.90;;;;;;5048587;28;20032;-46
2022/11/05 12:57:04;;;;;;;6.82;4.65;;;28.00;99.90;;;;;;5043140;28;20025;-46
2022/11/05 12:59:38;;;;;;;7.15;4.03;;;28.00;99.90;;;;;;5053823;28;20025;-47
2022/11/05 13:02:07;;;;;;;4.95;3.78;;;27.90;99.90;;;;;;5053723;28;20041;-47
2022/11/05 13:04:45;;;;;;;4.07;2.53;;;27.90;99.90;;;;;;5053765;28;20080;-47
2022/11/05 13:07:16;;;;;;;9.70;3.95;;;27.70;99.90;;;;;;5053112;28;20037;-47
2022/11/05 13:09:55;;;;;;;5.90;2.22;;;27.60;99.90;;;;;;5053951;28;20017;-47
2022/11/05 13:12:24;;;;;;;4.32;2.47;;;27.40;99.90;;;;;;5053894;28;20063;-46
2022/11/05 13:15:19;;;;;;;8.98;3.03;;;27.30;99.90;;;;;;5053827;28;20366;-47
2022/11/05 13:17:55;;;;;;;8.73;3.15;;;27.30;99.90;;;;;;5051788;28;20020;-47
2022/11/05 13:20:26;;;;;;;6.70;3.22;;;27.30;99.90;;;;;;5051467;28;20017;-47
2022/11/05 13:22:59;;;;;;;6.28;2.22;;;27.20;99.90;;;;;;5045713;28;20535;-46
2022/11/05 13:25:32;;;;;;;5.72;2.42;;;27.20;99.90;;;;;;5047890;28;20116;-46
2022/11/05 13:28:23;;;;;;;8.13;4.93;;;27.20;99.90;;;;;;5046732;28;20021;-46
2022/11/05 13:30:53;;;;;;;7.55;3.30;;;27.20;99.90;;;;;;5044129;28;20028;-46
2022/11/05 13:33:22;;;;;;;6.43;2.70;;;27.20;99.90;;;;;;5048396;28;20072;-46
2022/11/05 13:39:01;;;;;;;10.55;4.30;;;27.40;99.90;;;;;;5033363;28;20079;-46
2022/11/05 13:41:51;;;;;;;7.47;2.75;;;27.60;99.90;;;;;;5033430;28;20022;-45
2022/11/05 13:44:23;;;;;;;4.43;2.70;;;27.80;99.90;;;;;;5033337;28;20022;-47
2022/11/05 13:47:21;;;;;;;8.80;2.55;;;27.80;99.90;;;;;;5032768;28;20037;-48
2022/11/05 13:50:23;;;;;;;6.32;2.65;;;27.90;99.90;;;;;;5016192;28;20083;-47
2022/11/05 13:53:11;;;;;;;5.93;2.33;;;27.80;99.90;;;;;;5033632;28;20405;-47
2022/11/05 13:56:17;;;;;;;6.18;2.55;;;27.60;99.90;;;;;;5051145;28;20029;-47